sensor_id;sensor_type;location;lat;lon;timestamp;P1;durP1;ratioP1;P2;durP2;ratioP2
83807;SDS011;73824;40.292;17.998;2024-01-25T00:00:19;41.45;;;22.38;;
83807;SDS011;73824;40.292;17.998;2024-01-25T00:02:45;40.70;;;21.40;;
83807;SDS011;73824;40.292;17.998;2024-01-25T00:05:11;41.95;;;21.42;;
83807;SDS011;73824;40.292;17.998;2024-01-25T00:07:46;33.50;;;19.07;;
83807;SDS011;73824;40.292;17.998;2024-01-25T00:10:16;35.38;;;16.55;;
83807;SDS011;73824;40.292;17.998;2024-01-25T00:12:42;34.10;;;17.80;;
83807;SDS011;73824;40.292;17.998;2024-01-25T00:15:08;29.20;;;14.83;;
83807;SDS011;73824;40.292;17.998;2024-01-25T00:17:35;26.00;;;13.48;;
83807;SDS011;73824;40.292;17.998;2024-01-25T00:20:01;25.77;;;12.52;;
83807;SDS011;73824;40.292;17.998;2024-01-25T00:22:27;24.75;;;12.43;;
83807;SDS011;73824;40.292;17.998;2024-01-25T00:24:52;24.57;;;12.30;;
83807;SDS011;73824;40.292;17.998;2024-01-25T00:27:18;23.97;;;11.60;;
83807;SDS011;73824;40.292;17.998;2024-01-25T00:29:43;30.98;;;13.40;;
83807;SDS011;73824;40.292;17.998;2024-01-25T00:32:09;26.33;;;12.57;;
83807;SDS011;73824;40.292;17.998;2024-01-25T00:34:34;27.37;;;13.20;;
83807;SDS011;73824;40.292;17.998;2024-01-25T00:37:00;26.73;;;12.82;;
83807;SDS011;73824;40.292;17.998;2024-01-25T00:39:26;25.83;;;13.70;;
83807;SDS011;73824;40.292;17.998;2024-01-25T00:41:52;28.42;;;14.32;;
83807;SDS011;73824;40.292;17.998;2024-01-25T00:44:26;28.52;;;14.18;;
83807;SDS011;73824;40.292;17.998;2024-01-25T00:46:52;27.50;;;15.25;;
83807;SDS011;73824;40.292;17.998;2024-01-25T00:49:19;35.07;;;18.90;;
83807;SDS011;73824;40.292;17.998;2024-01-25T00:51:46;48.95;;;23.08;;
83807;SDS011;73824;40.292;17.998;2024-01-25T00:54:13;42.83;;;22.30;;
83807;SDS011;73824;40.292;17.998;2024-01-25T00:56:41;52.22;;;23.40;;
83807;SDS011;73824;40.292;17.998;2024-01-25T00:59:07;51.87;;;24.37;;
83807;SDS011;73824;40.292;17.998;2024-01-25T01:01:33;46.58;;;23.55;;
83807;SDS011;73824;40.292;17.998;2024-01-25T01:03:59;46.92;;;22.52;;
83807;SDS011;73824;40.292;17.998;2024-01-25T01:06:25;44.07;;;20.93;;
83807;SDS011;73824;40.292;17.998;2024-01-25T01:08:51;37.17;;;19.83;;
83807;SDS011;73824;40.292;17.998;2024-01-25T01:11:17;34.58;;;18.35;;
83807;SDS011;73824;40.292;17.998;2024-01-25T01:13:43;36.92;;;18.42;;
83807;SDS011;73824;40.292;17.998;2024-01-25T01:16:09;35.40;;;17.77;;
83807;SDS011;73824;40.292;17.998;2024-01-25T01:18:34;36.87;;;18.67;;
83807;SDS011;73824;40.292;17.998;2024-01-25T01:21:00;33.28;;;15.85;;
83807;SDS011;73824;40.292;17.998;2024-01-25T01:23:25;29.80;;;14.97;;
83807;SDS011;73824;40.292;17.998;2024-01-25T01:25:51;30.53;;;14.20;;
83807;SDS011;73824;40.292;17.998;2024-01-25T01:28:16;26.13;;;13.85;;
83807;SDS011;73824;40.292;17.998;2024-01-25T01:30:42;24.87;;;12.67;;
83807;SDS011;73824;40.292;17.998;2024-01-25T01:33:08;29.53;;;14.30;;
83807;SDS011;73824;40.292;17.998;2024-01-25T01:35:34;26.17;;;13.35;;
83807;SDS011;73824;40.292;17.998;2024-01-25T01:37:59;30.50;;;14.63;;
83807;SDS011;73824;40.292;17.998;2024-01-25T01:40:25;25.88;;;14.02;;
83807;SDS011;73824;40.292;17.998;2024-01-25T01:42:50;29.93;;;13.80;;
83807;SDS011;73824;40.292;17.998;2024-01-25T01:45:16;31.87;;;15.10;;
83807;SDS011;73824;40.292;17.998;2024-01-25T01:47:41;30.98;;;15.43;;
83807;SDS011;73824;40.292;17.998;2024-01-25T01:50:08;32.30;;;15.25;;
83807;SDS011;73824;40.292;17.998;2024-01-25T01:52:34;30.13;;;14.38;;
83807;SDS011;73824;40.292;17.998;2024-01-25T01:55:00;31.80;;;15.63;;
83807;SDS011;73824;40.292;17.998;2024-01-25T01:57:26;28.20;;;14.33;;
83807;SDS011;73824;40.292;17.998;2024-01-25T01:59:52;29.50;;;15.27;;
83807;SDS011;73824;40.292;17.998;2024-01-25T02:02:18;32.03;;;14.77;;
83807;SDS011;73824;40.292;17.998;2024-01-25T02:04:43;27.63;;;14.75;;
83807;SDS011;73824;40.292;17.998;2024-01-25T02:07:09;28.27;;;14.60;;
83807;SDS011;73824;40.292;17.998;2024-01-25T02:09:36;29.55;;;14.45;;
83807;SDS011;73824;40.292;17.998;2024-01-25T02:12:02;28.20;;;13.97;;
83807;SDS011;73824;40.292;17.998;2024-01-25T02:14:28;29.48;;;15.13;;
83807;SDS011;73824;40.292;17.998;2024-01-25T02:16:53;29.30;;;14.85;;
83807;SDS011;73824;40.292;17.998;2024-01-25T02:19:19;32.53;;;15.07;;
83807;SDS011;73824;40.292;17.998;2024-01-25T02:21:44;32.00;;;16.38;;
83807;SDS011;73824;40.292;17.998;2024-01-25T02:24:10;28.45;;;15.10;;
83807;SDS011;73824;40.292;17.998;2024-01-25T02:26:35;31.67;;;16.20;;
83807;SDS011;73824;40.292;17.998;2024-01-25T02:29:01;31.50;;;15.33;;
83807;SDS011;73824;40.292;17.998;2024-01-25T02:31:31;31.33;;;16.13;;
83807;SDS011;73824;40.292;17.998;2024-01-25T02:33:56;28.92;;;16.10;;
83807;SDS011;73824;40.292;17.998;2024-01-25T02:36:22;32.10;;;16.13;;
83807;SDS011;73824;40.292;17.998;2024-01-25T02:38:48;33.20;;;16.65;;
83807;SDS011;73824;40.292;17.998;2024-01-25T02:41:13;33.08;;;15.80;;
83807;SDS011;73824;40.292;17.998;2024-01-25T02:43:39;31.88;;;16.42;;
83807;SDS011;73824;40.292;17.998;2024-01-25T02:46:04;31.90;;;15.97;;
83807;SDS011;73824;40.292;17.998;2024-01-25T02:48:31;33.77;;;17.10;;
83807;SDS011;73824;40.292;17.998;2024-01-25T02:50:56;31.05;;;16.33;;
83807;SDS011;73824;40.292;17.998;2024-01-25T02:53:22;32.97;;;16.57;;
83807;SDS011;73824;40.292;17.998;2024-01-25T02:55:47;33.65;;;17.45;;
83807;SDS011;73824;40.292;17.998;2024-01-25T02:58:13;33.53;;;16.70;;
83807;SDS011;73824;40.292;17.998;2024-01-25T03:00:38;35.38;;;18.85;;
83807;SDS011;73824;40.292;17.998;2024-01-25T03:03:04;38.40;;;20.80;;
83807;SDS011;73824;40.292;17.998;2024-01-25T03:05:30;45.63;;;23.57;;
83807;SDS011;73824;40.292;17.998;2024-01-25T03:07:55;43.30;;;23.87;;
83807;SDS011;73824;40.292;17.998;2024-01-25T03:10:21;46.20;;;23.92;;
83807;SDS011;73824;40.292;17.998;2024-01-25T03:12:46;43.97;;;23.70;;
83807;SDS011;73824;40.292;17.998;2024-01-25T03:15:12;48.80;;;23.73;;
83807;SDS011;73824;40.292;17.998;2024-01-25T03:17:37;41.22;;;23.58;;
83807;SDS011;73824;40.292;17.998;2024-01-25T03:20:03;40.30;;;21.60;;
83807;SDS011;73824;40.292;17.998;2024-01-25T03:22:29;48.72;;;24.27;;
83807;SDS011;73824;40.292;17.998;2024-01-25T03:24:54;40.43;;;22.73;;
83807;SDS011;73824;40.292;17.998;2024-01-25T03:27:20;47.27;;;24.17;;
83807;SDS011;73824;40.292;17.998;2024-01-25T03:29:45;49.90;;;26.00;;
83807;SDS011;73824;40.292;17.998;2024-01-25T03:32:11;49.70;;;25.20;;
83807;SDS011;73824;40.292;17.998;2024-01-25T03:34:37;46.60;;;23.10;;
83807;SDS011;73824;40.292;17.998;2024-01-25T03:37:03;45.13;;;23.67;;
83807;SDS011;73824;40.292;17.998;2024-01-25T03:39:28;51.10;;;24.23;;
83807;SDS011;73824;40.292;17.998;2024-01-25T03:41:54;41.60;;;22.60;;
83807;SDS011;73824;40.292;17.998;2024-01-25T03:44:19;45.38;;;22.75;;
83807;SDS011;73824;40.292;17.998;2024-01-25T03:46:45;42.28;;;22.17;;
83807;SDS011;73824;40.292;17.998;2024-01-25T03:49:11;41.03;;;21.13;;
83807;SDS011;73824;40.292;17.998;2024-01-25T03:51:36;45.15;;;21.90;;
83807;SDS011;73824;40.292;17.998;2024-01-25T03:54:02;40.23;;;20.53;;
83807;SDS011;73824;40.292;17.998;2024-01-25T03:56:27;37.27;;;20.03;;
83807;SDS011;73824;40.292;17.998;2024-01-25T03:58:53;36.05;;;19.00;;
83807;SDS011;73824;40.292;17.998;2024-01-25T04:01:18;36.53;;;19.60;;
83807;SDS011;73824;40.292;17.998;2024-01-25T04:03:44;33.63;;;17.80;;
83807;SDS011;73824;40.292;17.998;2024-01-25T04:06:09;29.17;;;15.90;;
83807;SDS011;73824;40.292;17.998;2024-01-25T04:08:35;28.43;;;14.93;;
83807;SDS011;73824;40.292;17.998;2024-01-25T04:11:00;27.17;;;14.30;;
83807;SDS011;73824;40.292;17.998;2024-01-25T04:13:26;31.58;;;17.17;;
83807;SDS011;73824;40.292;17.998;2024-01-25T04:15:51;37.13;;;17.43;;
83807;SDS011;73824;40.292;17.998;2024-01-25T04:18:19;40.25;;;20.10;;
83807;SDS011;73824;40.292;17.998;2024-01-25T04:20:45;40.23;;;19.20;;
83807;SDS011;73824;40.292;17.998;2024-01-25T04:23:12;32.67;;;16.27;;
83807;SDS011;73824;40.292;17.998;2024-01-25T04:25:37;38.20;;;17.93;;
83807;SDS011;73824;40.292;17.998;2024-01-25T04:28:03;40.83;;;21.17;;
83807;SDS011;73824;40.292;17.998;2024-01-25T04:30:28;40.28;;;20.95;;
83807;SDS011;73824;40.292;17.998;2024-01-25T04:32:56;39.58;;;21.58;;
83807;SDS011;73824;40.292;17.998;2024-01-25T04:35:21;36.50;;;18.87;;
83807;SDS011;73824;40.292;17.998;2024-01-25T04:37:46;35.43;;;18.83;;
83807;SDS011;73824;40.292;17.998;2024-01-25T04:40:12;36.35;;;18.08;;
83807;SDS011;73824;40.292;17.998;2024-01-25T04:42:38;39.00;;;17.75;;
83807;SDS011;73824;40.292;17.998;2024-01-25T04:45:03;37.70;;;16.83;;
83807;SDS011;73824;40.292;17.998;2024-01-25T04:47:29;34.38;;;17.20;;
83807;SDS011;73824;40.292;17.998;2024-01-25T04:49:55;31.50;;;16.10;;
83807;SDS011;73824;40.292;17.998;2024-01-25T04:52:20;32.72;;;16.80;;
83807;SDS011;73824;40.292;17.998;2024-01-25T04:54:46;36.70;;;17.03;;
83807;SDS011;73824;40.292;17.998;2024-01-25T04:57:12;35.00;;;18.33;;
83807;SDS011;73824;40.292;17.998;2024-01-25T04:59:37;43.35;;;20.25;;
83807;SDS011;73824;40.292;17.998;2024-01-25T05:02:02;31.67;;;17.43;;
83807;SDS011;73824;40.292;17.998;2024-01-25T05:04:28;32.53;;;16.93;;
83807;SDS011;73824;40.292;17.998;2024-01-25T05:06:55;31.35;;;16.20;;
83807;SDS011;73824;40.292;17.998;2024-01-25T05:09:21;34.43;;;16.70;;
83807;SDS011;73824;40.292;17.998;2024-01-25T05:11:47;33.17;;;15.90;;
83807;SDS011;73824;40.292;17.998;2024-01-25T05:14:12;30.67;;;15.50;;
83807;SDS011;73824;40.292;17.998;2024-01-25T05:16:38;29.17;;;15.87;;
83807;SDS011;73824;40.292;17.998;2024-01-25T05:19:04;30.70;;;16.13;;
83807;SDS011;73824;40.292;17.998;2024-01-25T05:21:29;31.98;;;16.65;;
83807;SDS011;73824;40.292;17.998;2024-01-25T05:23:55;36.93;;;16.93;;
83807;SDS011;73824;40.292;17.998;2024-01-25T05:26:20;34.33;;;18.13;;
83807;SDS011;73824;40.292;17.998;2024-01-25T05:28:46;32.55;;;17.50;;
83807;SDS011;73824;40.292;17.998;2024-01-25T05:31:11;34.43;;;17.30;;
83807;SDS011;73824;40.292;17.998;2024-01-25T05:33:41;33.90;;;16.83;;
83807;SDS011;73824;40.292;17.998;2024-01-25T05:36:07;34.53;;;17.30;;
83807;SDS011;73824;40.292;17.998;2024-01-25T05:38:33;33.43;;;17.70;;
83807;SDS011;73824;40.292;17.998;2024-01-25T05:40:59;37.92;;;17.65;;
83807;SDS011;73824;40.292;17.998;2024-01-25T05:43:25;32.20;;;17.03;;
83807;SDS011;73824;40.292;17.998;2024-01-25T05:45:51;34.05;;;18.33;;
83807;SDS011;73824;40.292;17.998;2024-01-25T05:48:16;34.55;;;19.02;;
83807;SDS011;73824;40.292;17.998;2024-01-25T05:50:42;35.45;;;18.20;;
83807;SDS011;73824;40.292;17.998;2024-01-25T05:53:07;36.93;;;17.90;;
83807;SDS011;73824;40.292;17.998;2024-01-25T05:55:33;33.88;;;17.95;;
83807;SDS011;73824;40.292;17.998;2024-01-25T05:57:58;33.63;;;17.85;;
83807;SDS011;73824;40.292;17.998;2024-01-25T06:00:24;33.03;;;16.63;;
83807;SDS011;73824;40.292;17.998;2024-01-25T06:02:49;30.57;;;17.13;;
83807;SDS011;73824;40.292;17.998;2024-01-25T06:05:15;37.58;;;20.02;;
83807;SDS011;73824;40.292;17.998;2024-01-25T06:07:40;33.17;;;18.10;;
83807;SDS011;73824;40.292;17.998;2024-01-25T06:10:06;33.00;;;17.70;;
83807;SDS011;73824;40.292;17.998;2024-01-25T06:12:32;35.40;;;18.02;;
83807;SDS011;73824;40.292;17.998;2024-01-25T06:14:58;38.63;;;17.67;;
83807;SDS011;73824;40.292;17.998;2024-01-25T06:17:24;31.23;;;15.77;;
83807;SDS011;73824;40.292;17.998;2024-01-25T06:19:49;40.87;;;17.63;;
83807;SDS011;73824;40.292;17.998;2024-01-25T06:22:14;99.50;;;22.30;;
83807;SDS011;73824;40.292;17.998;2024-01-25T06:24:42;75.80;;;22.13;;
83807;SDS011;73824;40.292;17.998;2024-01-25T06:27:09;57.35;;;21.17;;
83807;SDS011;73824;40.292;17.998;2024-01-25T06:29:35;41.15;;;20.35;;
83807;SDS011;73824;40.292;17.998;2024-01-25T06:32:00;41.13;;;22.20;;
83807;SDS011;73824;40.292;17.998;2024-01-25T06:34:26;40.55;;;20.52;;
83807;SDS011;73824;40.292;17.998;2024-01-25T06:36:51;42.50;;;18.88;;
83807;SDS011;73824;40.292;17.998;2024-01-25T06:39:17;35.87;;;18.97;;
83807;SDS011;73824;40.292;17.998;2024-01-25T06:41:42;30.23;;;16.67;;
83807;SDS011;73824;40.292;17.998;2024-01-25T06:44:08;34.15;;;18.60;;
83807;SDS011;73824;40.292;17.998;2024-01-25T06:46:33;46.83;;;24.43;;
83807;SDS011;73824;40.292;17.998;2024-01-25T06:48:59;44.45;;;26.73;;
83807;SDS011;73824;40.292;17.998;2024-01-25T06:51:24;42.30;;;24.10;;
83807;SDS011;73824;40.292;17.998;2024-01-25T06:53:50;41.10;;;24.87;;
83807;SDS011;73824;40.292;17.998;2024-01-25T06:56:16;41.92;;;24.90;;
83807;SDS011;73824;40.292;17.998;2024-01-25T06:58:41;51.77;;;29.20;;
83807;SDS011;73824;40.292;17.998;2024-01-25T07:01:07;51.60;;;29.03;;
83807;SDS011;73824;40.292;17.998;2024-01-25T07:03:33;63.45;;;35.22;;
83807;SDS011;73824;40.292;17.998;2024-01-25T07:05:58;63.53;;;34.77;;
83807;SDS011;73824;40.292;17.998;2024-01-25T07:08:24;78.35;;;43.25;;
83807;SDS011;73824;40.292;17.998;2024-01-25T07:10:49;83.47;;;47.33;;
83807;SDS011;73824;40.292;17.998;2024-01-25T07:13:15;73.93;;;40.83;;
83807;SDS011;73824;40.292;17.998;2024-01-25T07:15:41;66.22;;;37.08;;
83807;SDS011;73824;40.292;17.998;2024-01-25T07:18:06;52.63;;;29.80;;
83807;SDS011;73824;40.292;17.998;2024-01-25T07:20:32;45.30;;;27.87;;
83807;SDS011;73824;40.292;17.998;2024-01-25T07:22:57;48.25;;;26.60;;
83807;SDS011;73824;40.292;17.998;2024-01-25T07:25:23;51.63;;;30.80;;
83807;SDS011;73824;40.292;17.998;2024-01-25T07:27:48;54.20;;;31.73;;
83807;SDS011;73824;40.292;17.998;2024-01-25T07:30:16;48.67;;;30.88;;
83807;SDS011;73824;40.292;17.998;2024-01-25T07:32:42;50.10;;;32.38;;
83807;SDS011;73824;40.292;17.998;2024-01-25T07:35:08;79.00;;;48.63;;
83807;SDS011;73824;40.292;17.998;2024-01-25T07:37:37;69.57;;;47.22;;
83807;SDS011;73824;40.292;17.998;2024-01-25T07:40:03;64.15;;;46.97;;
83807;SDS011;73824;40.292;17.998;2024-01-25T07:42:29;61.80;;;47.07;;
83807;SDS011;73824;40.292;17.998;2024-01-25T07:44:55;63.75;;;46.88;;
83807;SDS011;73824;40.292;17.998;2024-01-25T07:47:20;57.17;;;46.80;;
83807;SDS011;73824;40.292;17.998;2024-01-25T07:49:46;61.33;;;47.00;;
83807;SDS011;73824;40.292;17.998;2024-01-25T07:52:11;56.92;;;45.33;;
83807;SDS011;73824;40.292;17.998;2024-01-25T07:54:37;49.73;;;41.70;;
83807;SDS011;73824;40.292;17.998;2024-01-25T07:57:02;45.67;;;40.63;;
83807;SDS011;73824;40.292;17.998;2024-01-25T07:59:28;50.47;;;42.65;;
83807;SDS011;73824;40.292;17.998;2024-01-25T08:01:54;51.40;;;45.80;;
83807;SDS011;73824;40.292;17.998;2024-01-25T08:04:19;62.47;;;51.50;;
83807;SDS011;73824;40.292;17.998;2024-01-25T08:06:45;51.00;;;43.30;;
83807;SDS011;73824;40.292;17.998;2024-01-25T08:09:10;49.30;;;43.73;;
83807;SDS011;73824;40.292;17.998;2024-01-25T08:11:36;52.43;;;46.83;;
83807;SDS011;73824;40.292;17.998;2024-01-25T08:14:01;54.42;;;48.70;;
83807;SDS011;73824;40.292;17.998;2024-01-25T08:16:28;60.35;;;53.75;;
83807;SDS011;73824;40.292;17.998;2024-01-25T08:18:54;59.33;;;53.25;;
83807;SDS011;73824;40.292;17.998;2024-01-25T08:21:19;59.50;;;53.40;;
83807;SDS011;73824;40.292;17.998;2024-01-25T08:23:45;59.43;;;53.07;;
83807;SDS011;73824;40.292;17.998;2024-01-25T08:26:10;58.53;;;52.30;;
83807;SDS011;73824;40.292;17.998;2024-01-25T08:28:40;62.92;;;55.95;;
83807;SDS011;73824;40.292;17.998;2024-01-25T08:31:08;64.70;;;58.15;;
83807;SDS011;73824;40.292;17.998;2024-01-25T08:33:33;67.72;;;60.88;;
83807;SDS011;73824;40.292;17.998;2024-01-25T08:35:59;64.10;;;57.43;;
83807;SDS011;73824;40.292;17.998;2024-01-25T08:38:25;69.22;;;60.25;;
83807;SDS011;73824;40.292;17.998;2024-01-25T08:40:50;57.83;;;52.07;;
83807;SDS011;73824;40.292;17.998;2024-01-25T08:43:16;51.97;;;46.77;;
83807;SDS011;73824;40.292;17.998;2024-01-25T08:45:41;48.08;;;43.45;;
83807;SDS011;73824;40.292;17.998;2024-01-25T08:48:07;46.20;;;41.30;;
83807;SDS011;73824;40.292;17.998;2024-01-25T08:50:34;45.67;;;40.80;;
83807;SDS011;73824;40.292;17.998;2024-01-25T08:53:01;39.58;;;35.35;;
83807;SDS011;73824;40.292;17.998;2024-01-25T08:55:27;34.90;;;31.38;;
83807;SDS011;73824;40.292;17.998;2024-01-25T08:57:52;26.77;;;23.95;;
83807;SDS011;73824;40.292;17.998;2024-01-25T09:00:18;27.83;;;24.03;;
83807;SDS011;73824;40.292;17.998;2024-01-25T09:02:43;25.67;;;22.90;;
83807;SDS011;73824;40.292;17.998;2024-01-25T09:05:10;26.70;;;23.88;;
83807;SDS011;73824;40.292;17.998;2024-01-25T09:07:35;27.23;;;24.48;;
83807;SDS011;73824;40.292;17.998;2024-01-25T09:10:01;27.00;;;23.20;;
83807;SDS011;73824;40.292;17.998;2024-01-25T09:12:27;26.60;;;23.77;;
83807;SDS011;73824;40.292;17.998;2024-01-25T09:14:53;22.13;;;19.77;;
83807;SDS011;73824;40.292;17.998;2024-01-25T09:17:18;21.20;;;18.03;;
83807;SDS011;73824;40.292;17.998;2024-01-25T09:19:50;13.52;;;12.00;;
83807;SDS011;73824;40.292;17.998;2024-01-25T09:22:16;17.42;;;15.57;;
83807;SDS011;73824;40.292;17.998;2024-01-25T09:24:44;12.18;;;10.70;;
83807;SDS011;73824;40.292;17.998;2024-01-25T09:27:09;10.25;;;8.98;;
83807;SDS011;73824;40.292;17.998;2024-01-25T09:29:35;9.57;;;8.20;;
83807;SDS011;73824;40.292;17.998;2024-01-25T09:32:01;11.07;;;7.90;;
83807;SDS011;73824;40.292;17.998;2024-01-25T09:34:26;10.25;;;8.57;;
83807;SDS011;73824;40.292;17.998;2024-01-25T09:36:53;10.55;;;7.55;;
83807;SDS011;73824;40.292;17.998;2024-01-25T09:39:18;11.30;;;7.53;;
83807;SDS011;73824;40.292;17.998;2024-01-25T09:41:44;8.75;;;7.57;;
83807;SDS011;73824;40.292;17.998;2024-01-25T09:44:10;9.67;;;7.07;;
83807;SDS011;73824;40.292;17.998;2024-01-25T09:46:36;8.82;;;7.03;;
83807;SDS011;73824;40.292;17.998;2024-01-25T09:49:02;11.90;;;6.38;;
83807;SDS011;73824;40.292;17.998;2024-01-25T09:51:40;10.00;;;6.30;;
83807;SDS011;73824;40.292;17.998;2024-01-25T09:54:07;10.27;;;6.03;;
83807;SDS011;73824;40.292;17.998;2024-01-25T09:56:33;10.47;;;5.70;;
83807;SDS011;73824;40.292;17.998;2024-01-25T09:59:00;10.63;;;6.40;;
83807;SDS011;73824;40.292;17.998;2024-01-25T10:01:26;8.90;;;4.65;;
83807;SDS011;73824;40.292;17.998;2024-01-25T10:03:52;10.70;;;5.57;;
83807;SDS011;73824;40.292;17.998;2024-01-25T10:06:18;11.30;;;4.80;;
83807;SDS011;73824;40.292;17.998;2024-01-25T10:08:44;12.73;;;5.10;;
83807;SDS011;73824;40.292;17.998;2024-01-25T10:11:10;11.38;;;4.63;;
83807;SDS011;73824;40.292;17.998;2024-01-25T10:13:42;9.55;;;4.57;;
83807;SDS011;73824;40.292;17.998;2024-01-25T10:16:12;11.10;;;4.55;;
83807;SDS011;73824;40.292;17.998;2024-01-25T10:18:38;17.02;;;7.65;;
83807;SDS011;73824;40.292;17.998;2024-01-25T10:21:06;10.83;;;4.80;;
83807;SDS011;73824;40.292;17.998;2024-01-25T10:23:32;12.50;;;5.95;;
83807;SDS011;73824;40.292;17.998;2024-01-25T10:25:57;13.93;;;5.77;;
83807;SDS011;73824;40.292;17.998;2024-01-25T10:28:23;13.05;;;4.75;;
83807;SDS011;73824;40.292;17.998;2024-01-25T10:30:51;11.00;;;5.07;;
83807;SDS011;73824;40.292;17.998;2024-01-25T10:33:16;13.63;;;5.27;;
83807;SDS011;73824;40.292;17.998;2024-01-25T10:35:43;11.40;;;5.43;;
83807;SDS011;73824;40.292;17.998;2024-01-25T10:38:15;13.32;;;5.35;;
83807;SDS011;73824;40.292;17.998;2024-01-25T10:40:43;12.13;;;6.13;;
83807;SDS011;73824;40.292;17.998;2024-01-25T10:43:09;13.87;;;5.20;;
83807;SDS011;73824;40.292;17.998;2024-01-25T10:45:35;14.23;;;6.93;;
83807;SDS011;73824;40.292;17.998;2024-01-25T10:48:00;12.13;;;5.83;;
83807;SDS011;73824;40.292;17.998;2024-01-25T10:50:27;14.82;;;6.32;;
83807;SDS011;73824;40.292;17.998;2024-01-25T10:52:53;22.75;;;11.52;;
83807;SDS011;73824;40.292;17.998;2024-01-25T10:55:19;15.17;;;7.43;;
83807;SDS011;73824;40.292;17.998;2024-01-25T10:57:45;14.88;;;5.90;;
83807;SDS011;73824;40.292;17.998;2024-01-25T11:00:11;18.63;;;9.13;;
83807;SDS011;73824;40.292;17.998;2024-01-25T11:02:39;15.32;;;8.48;;
83807;SDS011;73824;40.292;17.998;2024-01-25T11:05:06;15.00;;;6.67;;
83807;SDS011;73824;40.292;17.998;2024-01-25T11:10:12;13.10;;;5.50;;
83807;SDS011;73824;40.292;17.998;2024-01-25T11:15:39;16.90;;;5.60;;
83807;SDS011;73824;40.292;17.998;2024-01-25T11:18:07;11.27;;;4.57;;
83807;SDS011;73824;40.292;17.998;2024-01-25T11:20:34;12.18;;;4.82;;
83807;SDS011;73824;40.292;17.998;2024-01-25T11:23:02;16.08;;;6.38;;
83807;SDS011;73824;40.292;17.998;2024-01-25T11:25:33;14.77;;;4.73;;
83807;SDS011;73824;40.292;17.998;2024-01-25T11:28:00;13.57;;;5.57;;
83807;SDS011;73824;40.292;17.998;2024-01-25T11:30:28;12.98;;;5.15;;
83807;SDS011;73824;40.292;17.998;2024-01-25T11:32:55;17.17;;;7.45;;
83807;SDS011;73824;40.292;17.998;2024-01-25T11:35:21;17.63;;;8.00;;
83807;SDS011;73824;40.292;17.998;2024-01-25T11:37:47;17.42;;;7.22;;
83807;SDS011;73824;40.292;17.998;2024-01-25T11:40:14;18.85;;;7.85;;
83807;SDS011;73824;40.292;17.998;2024-01-25T11:42:44;12.10;;;4.83;;
83807;SDS011;73824;40.292;17.998;2024-01-25T11:45:12;12.48;;;5.40;;
83807;SDS011;73824;40.292;17.998;2024-01-25T11:47:39;74.10;;;26.33;;
83807;SDS011;73824;40.292;17.998;2024-01-25T11:50:06;16.27;;;5.43;;
83807;SDS011;73824;40.292;17.998;2024-01-25T11:52:33;12.27;;;4.85;;
83807;SDS011;73824;40.292;17.998;2024-01-25T11:55:01;17.70;;;6.50;;
83807;SDS011;73824;40.292;17.998;2024-01-25T11:57:31;14.13;;;6.60;;
83807;SDS011;73824;40.292;17.998;2024-01-25T11:59:59;13.18;;;6.70;;
83807;SDS011;73824;40.292;17.998;2024-01-25T12:02:26;21.67;;;10.00;;
83807;SDS011;73824;40.292;17.998;2024-01-25T12:04:52;30.85;;;13.63;;
83807;SDS011;73824;40.292;17.998;2024-01-25T12:07:19;39.78;;;17.98;;
83807;SDS011;73824;40.292;17.998;2024-01-25T12:09:56;18.38;;;10.45;;
83807;SDS011;73824;40.292;17.998;2024-01-25T12:12:27;16.85;;;7.88;;
83807;SDS011;73824;40.292;17.998;2024-01-25T12:14:57;16.00;;;7.25;;
83807;SDS011;73824;40.292;17.998;2024-01-25T12:17:32;15.73;;;5.90;;
83807;SDS011;73824;40.292;17.998;2024-01-25T12:20:01;16.45;;;7.43;;
83807;SDS011;73824;40.292;17.998;2024-01-25T12:22:27;17.70;;;7.30;;
83807;SDS011;73824;40.292;17.998;2024-01-25T12:24:56;18.02;;;7.28;;
83807;SDS011;73824;40.292;17.998;2024-01-25T12:27:22;19.90;;;7.53;;
83807;SDS011;73824;40.292;17.998;2024-01-25T12:29:52;18.05;;;7.57;;
83807;SDS011;73824;40.292;17.998;2024-01-25T12:32:22;16.75;;;7.68;;
83807;SDS011;73824;40.292;17.998;2024-01-25T12:34:54;16.20;;;7.28;;
83807;SDS011;73824;40.292;17.998;2024-01-25T12:37:20;16.90;;;7.72;;
83807;SDS011;73824;40.292;17.998;2024-01-25T12:39:46;20.43;;;8.17;;
83807;SDS011;73824;40.292;17.998;2024-01-25T12:42:11;16.98;;;7.47;;
83807;SDS011;73824;40.292;17.998;2024-01-25T12:44:38;15.48;;;7.38;;
83807;SDS011;73824;40.292;17.998;2024-01-25T12:47:04;14.93;;;6.88;;
83807;SDS011;73824;40.292;17.998;2024-01-25T12:49:31;16.00;;;5.95;;
83807;SDS011;73824;40.292;17.998;2024-01-25T12:51:57;13.07;;;5.53;;
83807;SDS011;73824;40.292;17.998;2024-01-25T12:54:23;12.33;;;5.10;;
83807;SDS011;73824;40.292;17.998;2024-01-25T12:56:48;16.52;;;6.50;;
83807;SDS011;73824;40.292;17.998;2024-01-25T12:59:14;17.70;;;7.10;;
83807;SDS011;73824;40.292;17.998;2024-01-25T13:01:39;18.27;;;7.07;;
83807;SDS011;73824;40.292;17.998;2024-01-25T13:04:05;15.00;;;6.90;;
83807;SDS011;73824;40.292;17.998;2024-01-25T13:06:31;16.23;;;6.60;;
83807;SDS011;73824;40.292;17.998;2024-01-25T13:08:56;14.55;;;5.78;;
83807;SDS011;73824;40.292;17.998;2024-01-25T13:11:22;15.17;;;5.20;;
83807;SDS011;73824;40.292;17.998;2024-01-25T13:13:47;17.55;;;6.82;;
83807;SDS011;73824;40.292;17.998;2024-01-25T13:16:13;14.63;;;6.97;;
83807;SDS011;73824;40.292;17.998;2024-01-25T13:18:38;13.27;;;6.10;;
83807;SDS011;73824;40.292;17.998;2024-01-25T13:21:04;13.23;;;6.00;;
83807;SDS011;73824;40.292;17.998;2024-01-25T13:23:29;15.90;;;6.78;;
83807;SDS011;73824;40.292;17.998;2024-01-25T13:25:55;14.13;;;5.63;;
83807;SDS011;73824;40.292;17.998;2024-01-25T13:28:21;14.10;;;5.83;;
83807;SDS011;73824;40.292;17.998;2024-01-25T13:30:46;19.17;;;6.22;;
83807;SDS011;73824;40.292;17.998;2024-01-25T13:33:11;15.57;;;5.90;;
83807;SDS011;73824;40.292;17.998;2024-01-25T13:35:37;15.63;;;5.60;;
83807;SDS011;73824;40.292;17.998;2024-01-25T13:38:03;13.13;;;5.50;;
83807;SDS011;73824;40.292;17.998;2024-01-25T13:40:28;12.27;;;5.75;;
83807;SDS011;73824;40.292;17.998;2024-01-25T13:42:54;11.17;;;4.80;;
83807;SDS011;73824;40.292;17.998;2024-01-25T13:45:22;15.95;;;5.60;;
83807;SDS011;73824;40.292;17.998;2024-01-25T13:47:47;13.47;;;4.70;;
83807;SDS011;73824;40.292;17.998;2024-01-25T13:50:13;16.20;;;5.80;;
83807;SDS011;73824;40.292;17.998;2024-01-25T13:52:38;13.00;;;5.45;;
83807;SDS011;73824;40.292;17.998;2024-01-25T13:55:04;16.70;;;6.87;;
83807;SDS011;73824;40.292;17.998;2024-01-25T13:57:30;15.52;;;6.03;;
83807;SDS011;73824;40.292;17.998;2024-01-25T13:59:56;14.93;;;6.07;;
83807;SDS011;73824;40.292;17.998;2024-01-25T14:02:21;13.33;;;5.07;;
83807;SDS011;73824;40.292;17.998;2024-01-25T14:04:47;15.35;;;6.70;;
83807;SDS011;73824;40.292;17.998;2024-01-25T14:07:14;13.45;;;5.85;;
83807;SDS011;73824;40.292;17.998;2024-01-25T14:09:40;12.38;;;5.18;;
83807;SDS011;73824;40.292;17.998;2024-01-25T14:12:07;12.30;;;4.17;;